Time;durP1;ratioP1;P1;durP2;ratioP2;P2;SDS_P1;SDS_P2;PMS_P1;PMS_P2;Temp;Humidity;BMP_temperature;BMP_pressure;BME280_temperature;BME280_humidity;BME280_pressure;Samples;Min_cycle;Max_cycle;Signal;HPM_P1;HPM_P2
2020/12/09 00:02:29;;;;;;;5.70;2.47;;;7.60;99.90;;;;;;7728146;28;20102;-82
2020/12/09 00:06:11;;;;;;;13.30;3.80;;;7.60;99.90;;;;;;7729780;28;20139;-78
2020/12/09 00:09:53;;;;;;;14.47;3.33;;;7.50;99.90;;;;;;7725044;28;20091;-76
2020/12/09 00:13:35;;;;;;;7.67;2.53;;;7.50;99.90;;;;;;7723664;28;20060;-77
2020/12/09 00:17:16;;;;;;;8.50;2.73;;;7.50;99.90;;;;;;7730235;28;20095;-79
2020/12/09 00:20:57;;;;;;;5.40;1.70;;;7.40;99.90;;;;;;7730417;28;20097;-81
2020/12/09 00:24:39;;;;;;;4.47;1.77;;;7.40;99.90;;;;;;7734042;28;20679;-79
2020/12/09 00:28:20;;;;;;;4.87;2.47;;;7.40;99.90;;;;;;7736206;28;20094;-77
2020/12/09 00:32:03;;;;;;;3.40;1.63;;;7.40;99.90;;;;;;7733218;28;20052;-78
2020/12/09 00:35:45;;;;;;;7.93;2.20;;;7.40;99.90;;;;;;7736264;28;20397;-83
2020/12/09 00:39:26;;;;;;;4.37;1.97;;;7.30;99.90;;;;;;7732606;28;20396;-82
2020/12/09 00:43:08;;;;;;;4.33;1.63;;;7.30;99.90;;;;;;7727226;28;20052;-79
2020/12/09 00:46:49;;;;;;;4.93;1.30;;;7.30;99.90;;;;;;7734865;28;20142;-79
2020/12/09 00:50:31;;;;;;;8.90;1.80;;;7.20;99.90;;;;;;7724444;28;20087;-78
2020/12/09 00:54:12;;;;;;;5.90;1.70;;;7.20;99.90;;;;;;7731329;28;20052;-80
2020/12/09 00:57:54;;;;;;;5.53;2.13;;;7.10;99.90;;;;;;7734498;28;20051;-82
2020/12/09 01:01:35;;;;;;;8.33;2.20;;;7.10;99.90;;;;;;7735775;28;20087;-74
2020/12/09 01:05:17;;;;;;;3.80;1.20;;;7.10;99.90;;;;;;7733470;28;20130;-79
2020/12/09 01:08:58;;;;;;;6.93;1.70;;;7.10;99.90;;;;;;7732397;28;20714;-76
2020/12/09 01:12:41;;;;;;;2.93;1.17;;;7.10;99.90;;;;;;7730638;28;20494;-79
2020/12/09 01:16:23;;;;;;;3.03;1.40;;;7.10;99.90;;;;;;7733965;28;20135;-76
2020/12/09 01:20:05;;;;;;;3.33;1.40;;;7.00;99.90;;;;;;7744762;28;20064;-75
2020/12/09 01:23:47;;;;;;;3.10;1.10;;;7.00;99.90;;;;;;7733352;28;20091;-76
2020/12/09 01:27:29;;;;;;;3.37;1.23;;;7.00;99.90;;;;;;7733315;28;20059;-81
2020/12/09 01:31:10;;;;;;;5.07;1.70;;;7.00;99.90;;;;;;7731071;28;20052;-78
2020/12/09 01:34:52;;;;;;;3.67;1.30;;;7.00;99.90;;;;;;7734458;28;20180;-77
2020/12/09 01:38:34;;;;;;;4.17;1.40;;;6.90;99.90;;;;;;7715202;28;20071;-85
2020/12/09 01:42:16;;;;;;;4.70;1.90;;;7.00;99.90;;;;;;7715414;28;20064;-80
2020/12/09 01:45:57;;;;;;;3.57;1.50;;;7.00;99.90;;;;;;7731272;28;20135;-77
2020/12/09 01:49:39;;;;;;;2.67;1.20;;;7.00;99.90;;;;;;7733408;28;20099;-79
2020/12/09 01:53:21;;;;;;;3.33;1.27;;;7.00;99.90;;;;;;7731748;28;20106;-79
2020/12/09 01:57:11;;;;;;;9.77;2.17;;;7.10;99.90;;;;;;7724704;28;20135;-79
2020/12/09 02:00:54;;;;;;;5.90;2.00;;;7.10;99.90;;;;;;7734455;28;20121;-81
2020/12/09 02:04:36;;;;;;;2.97;1.30;;;7.10;99.90;;;;;;7720768;28;20139;-76
2020/12/09 02:08:18;;;;;;;4.67;1.57;;;7.00;99.90;;;;;;7731000;28;20507;-80
2020/12/09 02:12:00;;;;;;;6.40;2.60;;;7.00;99.90;;;;;;7728615;28;20168;-77
2020/12/09 02:15:41;;;;;;;2.30;1.13;;;7.00;99.90;;;;;;7733697;28;20059;-82
2020/12/09 02:19:24;;;;;;;3.43;1.20;;;7.00;99.90;;;;;;7727416;28;20056;-76
2020/12/09 02:23:06;;;;;;;4.20;1.67;;;7.00;99.90;;;;;;7734900;28;20146;-79
2020/12/09 02:26:49;;;;;;;4.23;1.60;;;6.90;99.90;;;;;;7734825;28;20060;-83
2020/12/09 02:30:36;;;;;;;3.13;1.10;;;6.90;99.90;;;;;;7724124;28;20068;-77
2020/12/09 02:34:17;;;;;;;4.40;1.47;;;6.90;99.90;;;;;;7730924;28;20184;-84
2020/12/09 02:37:58;;;;;;;2.90;1.20;;;6.80;99.90;;;;;;7732975;28;20098;-81
2020/12/09 02:41:40;;;;;;;3.03;0.93;;;6.90;99.90;;;;;;7732338;28;20138;-82
2020/12/09 02:45:23;;;;;;;3.47;1.00;;;6.80;99.90;;;;;;7728353;28;20052;-77
2020/12/09 02:49:04;;;;;;;1.67;1.00;;;6.80;99.90;;;;;;7732196;28;20091;-78
2020/12/09 02:52:46;;;;;;;3.50;1.10;;;6.90;99.90;;;;;;7730737;28;20375;-86
2020/12/09 02:56:29;;;;;;;3.40;1.30;;;6.80;99.90;;;;;;7722285;28;20095;-81
2020/12/09 03:00:10;;;;;;;2.70;1.07;;;6.70;99.90;;;;;;7731512;28;20092;-83
2020/12/09 03:03:52;;;;;;;1.33;0.80;;;6.80;99.90;;;;;;7731337;28;20146;-78
2020/12/09 03:07:33;;;;;;;1.83;1.00;;;6.70;99.90;;;;;;7730036;28;20130;-88
2020/12/09 03:11:14;;;;;;;3.37;1.10;;;6.70;99.90;;;;;;7729813;28;20084;-79
2020/12/09 03:14:56;;;;;;;3.97;1.60;;;6.70;99.90;;;;;;7730397;28;20143;-81
2020/12/09 03:18:37;;;;;;;1.67;0.80;;;6.70;99.90;;;;;;7730108;28;20184;-77
2020/12/09 03:22:19;;;;;;;1.77;1.00;;;6.80;99.90;;;;;;7729803;28;20087;-79
2020/12/09 03:26:00;;;;;;;4.37;1.07;;;6.80;99.90;;;;;;7716890;28;20147;-77
2020/12/09 03:29:42;;;;;;;4.00;1.27;;;6.90;99.90;;;;;;7730792;28;20094;-79
2020/12/09 03:33:23;;;;;;;3.47;1.20;;;7.00;99.90;;;;;;7728442;28;20420;-77
2020/12/09 03:37:05;;;;;;;4.87;1.20;;;7.10;99.90;;;;;;7731328;28;20150;-76
2020/12/09 03:40:46;;;;;;;2.70;1.17;;;7.30;99.90;;;;;;7726979;28;20083;-83
2020/12/09 03:44:29;;;;;;;1.40;0.90;;;7.30;99.90;;;;;;7721474;28;20052;-81
2020/12/09 03:48:11;;;;;;;4.70;1.67;;;7.40;99.90;;;;;;7730377;28;20111;-84
2020/12/09 03:51:52;;;;;;;4.53;1.30;;;7.50;99.90;;;;;;7731444;28;20456;-80
2020/12/09 03:55:34;;;;;;;3.33;1.10;;;7.60;99.90;;;;;;7722024;28;20080;-82
2020/12/09 03:59:16;;;;;;;4.57;1.33;;;7.70;99.90;;;;;;7738272;28;20079;-77
2020/12/09 04:02:57;;;;;;;3.00;1.40;;;7.70;99.90;;;;;;7734897;28;20091;-77
2020/12/09 04:06:38;;;;;;;2.37;1.10;;;7.80;99.90;;;;;;7737162;28;20060;-81
2020/12/09 04:10:20;;;;;;;4.23;1.43;;;7.90;99.90;;;;;;7730183;28;20052;-77
2020/12/09 04:14:02;;;;;;;5.33;1.90;;;7.90;99.90;;;;;;7734740;28;20052;-79
2020/12/09 04:17:43;;;;;;;6.60;1.87;;;8.00;99.90;;;;;;7736072;28;20558;-84
2020/12/09 04:21:25;;;;;;;4.07;1.60;;;8.00;99.90;;;;;;7727774;28;20067;-78
2020/12/09 04:25:06;;;;;;;6.47;1.33;;;8.10;99.90;;;;;;7732251;28;20059;-76
2020/12/09 04:28:48;;;;;;;3.60;1.40;;;8.10;99.90;;;;;;7735955;28;20067;-77
2020/12/09 04:32:30;;;;;;;7.53;2.13;;;8.20;99.90;;;;;;7733861;28;20048;-79
2020/12/09 04:36:12;;;;;;;6.07;1.30;;;8.20;99.90;;;;;;7736366;28;20056;-78
2020/12/09 04:39:55;;;;;;;6.07;1.60;;;8.30;99.90;;;;;;7734669;28;20134;-80
2020/12/09 04:43:37;;;;;;;6.83;1.87;;;8.30;99.90;;;;;;7733417;28;20163;-78
2020/12/09 04:47:40;;;;;;;5.17;1.77;;;8.30;99.90;;;;;;7731258;28;20099;-76
2020/12/09 04:51:58;;;;;;;5.93;1.60;;;8.30;99.90;;;;;;7719030;28;20416;-77
2020/12/09 04:55:49;;;;;;;7.33;1.60;;;8.20;99.60;;;;;;7735004;28;20151;-81
2020/12/09 04:59:41;;;;;;;6.10;1.60;;;8.10;99.50;;;;;;7734448;28;20127;-83
2020/12/09 05:03:22;;;;;;;3.67;1.33;;;8.10;99.30;;;;;;7732375;28;20486;-77
2020/12/09 05:07:11;;;;;;;5.40;1.60;;;8.00;99.20;;;;;;7734600;28;20056;-77
2020/12/09 05:10:53;;;;;;;3.77;1.43;;;7.90;99.20;;;;;;7732695;28;20094;-77
2020/12/09 05:14:37;;;;;;;2.40;0.87;;;7.80;99.10;;;;;;7734051;28;20433;-78
2020/12/09 05:18:30;;;;;;;3.17;1.20;;;7.70;99.00;;;;;;7733994;28;20087;-76
2020/12/09 05:22:21;;;;;;;5.37;1.30;;;7.70;98.80;;;;;;7732217;28;20412;-77
2020/12/09 05:26:02;;;;;;;3.63;1.10;;;7.60;99.00;;;;;;7733977;28;20064;-79
2020/12/09 05:29:45;;;;;;;4.73;1.60;;;7.50;99.00;;;;;;7732196;28;20149;-77
2020/12/09 05:33:32;;;;;;;4.70;1.20;;;7.40;99.00;;;;;;7728435;28;20126;-84
2020/12/09 05:37:13;;;;;;;2.55;1.17;;;7.30;99.00;;;;;;7727316;28;20060;-83
2020/12/09 05:40:56;;;;;;;2.97;1.30;;;7.20;99.00;;;;;;7730097;28;20490;-77
2020/12/09 05:44:41;;;;;;;4.37;1.30;;;7.20;99.20;;;;;;7733403;28;20345;-77
2020/12/09 05:48:25;;;;;;;3.10;1.10;;;7.10;99.30;;;;;;7723709;28;20052;-83
2020/12/09 05:52:15;;;;;;;2.67;1.23;;;7.10;99.40;;;;;;7733063;28;20081;-82
2020/12/09 05:56:21;;;;;;;5.50;1.57;;;7.10;99.40;;;;;;7731626;28;20059;-76
2020/12/09 06:00:11;;;;;;;6.03;1.53;;;7.00;99.50;;;;;;7731100;28;20091;-80
2020/12/09 06:03:57;;;;;;;5.77;1.50;;;7.00;99.70;;;;;;7731923;28;20090;-81
2020/12/09 06:07:38;;;;;;;5.57;1.70;;;7.00;99.70;;;;;;7731913;28;20138;-85
2020/12/09 06:11:28;;;;;;;2.33;1.07;;;6.90;99.80;;;;;;7732200;28;20097;-75
2020/12/09 06:15:14;;;;;;;2.50;1.20;;;7.00;99.70;;;;;;7729045;28;20052;-80
2020/12/09 06:18:56;;;;;;;1.87;0.90;;;6.90;99.70;;;;;;7732456;28;20142;-85
2020/12/09 06:22:37;;;;;;;1.47;0.87;;;6.90;99.60;;;;;;7730056;28;20516;-77
2020/12/09 06:26:20;;;;;;;1.97;0.90;;;6.90;99.50;;;;;;7730799;28;20056;-82
2020/12/09 06:30:06;;;;;;;2.47;1.33;;;6.90;99.30;;;;;;7730502;28;20084;-80
2020/12/09 06:33:56;;;;;;;3.73;1.30;;;6.80;99.20;;;;;;7725523;28;20109;-80
2020/12/09 06:37:38;;;;;;;4.27;1.00;;;6.80;99.30;;;;;;7728209;28;20132;-80
2020/12/09 06:41:19;;;;;;;2.43;1.00;;;6.70;99.20;;;;;;7732098;28;20086;-77
2020/12/09 06:45:02;;;;;;;0.77;0.70;;;6.70;99.30;;;;;;7719941;28;20139;-79
2020/12/09 06:48:43;;;;;;;1.67;1.00;;;6.70;99.10;;;;;;7724288;28;20044;-80
2020/12/09 06:52:30;;;;;;;3.67;1.13;;;6.60;98.90;;;;;;7731175;28;20052;-77
2020/12/09 06:56:17;;;;;;;;;;;6.60;99.00;;;;;;7731412;28;20052;-81
2020/12/09 07:00:15;;;;;;;3.67;1.37;;;6.50;98.80;;;;;;7730359;28;20008;-82
2020/12/09 07:03:57;;;;;;;1.30;0.83;;;6.50;99.00;;;;;;7730627;28;20136;-83
2020/12/09 07:07:49;;;;;;;1.87;0.90;;;6.40;99.10;;;;;;7729949;28;20091;-79
2020/12/09 07:11:31;;;;;;;1.60;0.90;;;6.30;98.90;;;;;;7728632;28;20139;-78
2020/12/09 07:15:13;;;;;;;3.70;1.20;;;6.30;99.10;;;;;;7730824;28;20060;-85
2020/12/09 07:18:59;;;;;;;5.50;1.80;;;6.30;99.30;;;;;;7731023;28;20048;-78
2020/12/09 07:22:41;;;;;;;;;;;6.30;99.60;;;;;;7730783;28;20441;-85
2020/12/09 07:26:23;;;;;;;4.73;1.87;;;6.20;99.60;;;;;;7729404;28;19920;-82
2020/12/09 07:30:11;;;;;;;3.77;1.80;;;6.20;99.90;;;;;;7727596;28;20135;-85
2020/12/09 07:34:02;;;;;;;4.13;1.90;;;6.30;99.90;;;;;;7722197;28;20214;-76
2020/12/09 07:37:47;;;;;;;4.10;1.87;;;6.30;99.90;;;;;;7728399;28;20048;-77
2020/12/09 07:41:43;;;;;;;5.47;1.77;;;6.30;99.90;;;;;;7724768;28;20056;-79
2020/12/09 07:45:25;;;;;;;4.67;1.60;;;6.30;99.90;;;;;;7727064;28;20067;-78
2020/12/09 07:49:11;;;;;;;2.97;1.30;;;6.30;99.90;;;;;;7727638;28;20157;-78
2020/12/09 07:52:52;;;;;;;4.37;1.47;;;6.30;99.90;;;;;;7722769;28;20086;-77
2020/12/09 07:56:36;;;;;;;7.70;2.30;;;6.30;99.90;;;;;;7723390;28;20127;-76
2020/12/09 08:00:19;;;;;;;1.77;0.93;;;6.30;99.90;;;;;;7728022;28;20103;-80
2020/12/09 08:04:00;;;;;;;3.83;1.60;;;6.30;99.90;;;;;;7728106;28;20091;-77
2020/12/09 08:07:51;;;;;;;3.47;2.13;;;6.30;99.90;;;;;;7725361;28;20363;-79
2020/12/09 08:11:37;;;;;;;3.60;1.40;;;6.30;99.90;;;;;;7728067;28;20067;-76
2020/12/09 08:15:21;;;;;;;1.47;1.00;;;6.30;99.90;;;;;;7726514;28;20505;-79
2020/12/09 08:19:07;;;;;;;4.80;1.53;;;6.30;99.90;;;;;;7722172;28;20079;-79
2020/12/09 08:23:02;;;;;;;7.47;1.37;;;6.30;99.90;;;;;;7723669;28;20143;-79
2020/12/09 08:26:45;;;;;;;3.20;1.20;;;6.30;99.90;;;;;;7745898;27;20147;-83
2020/12/09 08:30:26;;;;;;;2.83;1.00;;;6.40;99.90;;;;;;7724116;28;20060;-79
2020/12/09 08:34:14;;;;;;;1.47;0.87;;;6.40;99.90;;;;;;7726715;28;20474;-79
2020/12/09 08:37:56;;;;;;;1.20;0.87;;;6.40;99.90;;;;;;7725559;28;20153;-79
2020/12/09 08:41:38;;;;;;;2.57;0.90;;;6.40;99.90;;;;;;7729699;28;20067;-78
2020/12/09 08:45:20;;;;;;;0.90;0.70;;;6.40;99.90;;;;;;7732936;28;20143;-82
2020/12/09 08:49:03;;;;;;;0.60;0.60;;;6.40;99.90;;;;;;7732603;28;20052;-77
2020/12/09 08:52:45;;;;;;;1.30;0.80;;;6.50;99.90;;;;;;7732642;28;20055;-77
2020/12/09 08:56:32;;;;;;;1.97;1.10;;;6.50;99.90;;;;;;7732408;28;20391;-77
2020/12/09 09:00:13;;;;;;;;;;;6.50;99.80;;;;;;7725233;28;20158;-78
2020/12/09 09:03:59;;;;;;;2.13;1.03;;;6.40;99.60;;;;;;7733590;28;19920;-75
2020/12/09 09:07:41;;;;;;;0.80;0.60;;;6.50;99.60;;;;;;7734407;28;20389;-77
2020/12/09 09:11:23;;;;;;;0.57;0.53;;;6.50;99.50;;;;;;7732771;28;20135;-78
2020/12/09 09:15:05;;;;;;;0.60;0.60;;;6.50;99.70;;;;;;7734272;28;20088;-80
2020/12/09 09:18:46;;;;;;;0.90;0.73;;;6.50;99.90;;;;;;7728212;28;20066;-79
2020/12/09 09:22:28;;;;;;;0.57;0.57;;;6.60;99.90;;;;;;7728802;28;20087;-76
2020/12/09 09:26:11;;;;;;;0.93;0.60;;;6.70;99.90;;;;;;7734059;28;20109;-76
2020/12/09 09:29:53;;;;;;;0.57;0.57;;;6.80;99.90;;;;;;7733120;28;20720;-77
2020/12/09 09:33:34;;;;;;;0.50;0.50;;;7.00;99.90;;;;;;7732442;28;20321;-76
2020/12/09 09:37:16;;;;;;;0.80;0.50;;;7.10;99.90;;;;;;7733679;28;20391;-76
2020/12/09 09:40:58;;;;;;;1.07;0.70;;;7.30;99.90;;;;;;7724741;28;20101;-78
2020/12/09 09:44:39;;;;;;;1.60;0.70;;;7.40;99.90;;;;;;7730983;28;20151;-77
2020/12/09 09:48:21;;;;;;;1.43;0.60;;;7.50;99.90;;;;;;7727567;28;20048;-76
2020/12/09 09:52:03;;;;;;;0.57;0.57;;;7.60;99.90;;;;;;7729302;28;20056;-75
2020/12/09 09:55:44;;;;;;;0.60;0.60;;;7.80;99.90;;;;;;7731909;28;20131;-76
2020/12/09 09:59:29;;;;;;;0.60;0.60;;;7.90;99.90;;;;;;7738658;28;20063;-76
2020/12/09 10:03:12;;;;;;;0.60;0.57;;;8.10;99.90;;;;;;7733367;28;20805;-76
2020/12/09 10:06:54;;;;;;;0.80;0.80;;;8.20;99.90;;;;;;7734722;28;20055;-76
2020/12/09 10:10:35;;;;;;;1.50;0.77;;;8.40;99.90;;;;;;7733475;28;20064;-75
2020/12/09 10:14:17;;;;;;;1.73;0.77;;;8.50;99.90;;;;;;7733829;28;20183;-76
2020/12/09 10:17:58;;;;;;;0.93;0.80;;;8.70;99.90;;;;;;7733197;28;20064;-76
2020/12/09 10:21:40;;;;;;;1.87;0.70;;;8.80;99.90;;;;;;7729952;28;20056;-76
2020/12/09 10:25:24;;;;;;;0.70;0.60;;;8.90;99.90;;;;;;7733469;28;20499;-77
2020/12/09 10:29:08;;;;;;;0.70;0.60;;;9.00;99.90;;;;;;7732589;28;20467;-77
2020/12/09 10:32:49;;;;;;;0.90;0.70;;;9.20;99.90;;;;;;7732384;28;20066;-76
2020/12/09 10:36:31;;;;;;;1.70;0.87;;;9.20;99.90;;;;;;7729391;28;20084;-77
2020/12/09 10:40:13;;;;;;;3.73;1.40;;;9.30;99.70;;;;;;7731311;28;20054;-75
2020/12/09 10:43:55;;;;;;;1.63;1.07;;;9.40;99.60;;;;;;7730814;28;20063;-76
2020/12/09 10:47:36;;;;;;;2.20;1.00;;;9.40;99.60;;;;;;7720940;28;20092;-76
2020/12/09 10:51:18;;;;;;;1.17;0.70;;;9.40;99.70;;;;;;7730930;28;20135;-76
2020/12/09 10:55:00;;;;;;;0.87;0.60;;;9.50;99.70;;;;;;7730394;28;20468;-75
2020/12/09 10:58:42;;;;;;;1.07;0.80;;;9.60;99.90;;;;;;7732354;28;20135;-76
2020/12/09 11:02:23;;;;;;;1.07;0.60;;;9.70;99.60;;;;;;7730297;28;20056;-76
2020/12/09 11:06:05;;;;;;;1.13;0.63;;;9.80;99.60;;;;;;7730166;28;20550;-75
2020/12/09 11:09:46;;;;;;;1.47;0.70;;;10.00;99.50;;;;;;7730640;28;20060;-76
2020/12/09 11:13:28;;;;;;;0.90;0.60;;;10.10;99.40;;;;;;7717037;28;20064;-79
2020/12/09 11:17:09;;;;;;;0.47;0.47;;;10.20;99.40;;;;;;7714408;28;20074;-77
2020/12/09 11:20:50;;;;;;;1.80;0.70;;;10.30;99.40;;;;;;7730169;28;20135;-76
2020/12/09 11:24:32;;;;;;;0.80;0.60;;;10.40;99.50;;;;;;7730448;28;20437;-76
2020/12/09 11:28:14;;;;;;;1.63;0.70;;;10.50;99.60;;;;;;7729961;28;20134;-76
2020/12/09 11:32:04;;;;;;;2.63;1.17;;;10.70;99.50;;;;;;7730390;28;20067;-78
2020/12/09 11:35:45;;;;;;;2.33;0.90;;;10.80;99.20;;;;;;7730415;28;20056;-75
2020/12/09 11:39:27;;;;;;;3.20;1.40;;;10.90;99.00;;;;;;7732231;28;20142;-78
2020/12/09 11:43:34;;;;;;;3.60;1.10;;;11.00;98.80;;;;;;7731782;28;20088;-82
2020/12/09 11:47:24;;;;;;;2.20;0.90;;;11.10;98.20;;;;;;7723928;28;20067;-78
2020/12/09 11:51:05;;;;;;;4.60;1.47;;;11.10;98.30;;;;;;7731245;28;20306;-77
2020/12/09 11:54:47;;;;;;;2.27;0.80;;;11.10;98.30;;;;;;7731010;28;20169;-77
2020/12/09 11:58:28;;;;;;;2.87;1.10;;;11.20;98.10;;;;;;7730705;28;20353;-77
2020/12/09 12:02:10;;;;;;;3.03;0.90;;;11.30;97.80;;;;;;7730551;28;20056;-76
2020/12/09 12:05:52;;;;;;;2.47;0.73;;;11.30;97.50;;;;;;7731886;28;20052;-77
2020/12/09 12:09:34;;;;;;;1.93;0.80;;;11.40;97.80;;;;;;7732432;28;20090;-77
2020/12/09 12:13:16;;;;;;;0.93;0.70;;;11.40;97.50;;;;;;7731552;28;20052;-77
2020/12/09 12:16:57;;;;;;;1.17;0.77;;;11.30;97.50;;;;;;7736746;28;20052;-77
2020/12/09 12:20:39;;;;;;;1.07;0.60;;;11.30;97.60;;;;;;7736758;28;20056;-77
2020/12/09 12:24:20;;;;;;;0.93;0.80;;;11.30;97.60;;;;;;7737230;28;20056;-77
2020/12/09 12:28:02;;;;;;;4.17;1.27;;;11.30;97.60;;;;;;7736418;28;20391;-78
2020/12/09 12:31:43;;;;;;;3.67;1.00;;;11.30;97.60;;;;;;7736499;28;20425;-77
2020/12/09 12:35:25;;;;;;;2.73;0.87;;;11.30;97.60;;;;;;7737036;28;20064;-77
2020/12/09 12:39:07;;;;;;;1.83;0.80;;;11.30;97.60;;;;;;7736129;28;20056;-81
2020/12/09 12:42:48;;;;;;;0.97;0.60;;;11.20;97.60;;;;;;7736569;28;20052;-77
2020/12/09 12:46:30;;;;;;;1.20;0.80;;;11.10;97.70;;;;;;7733338;28;20139;-77
2020/12/09 12:50:12;;;;;;;2.17;1.20;;;11.10;97.80;;;;;;7735988;28;20063;-76
2020/12/09 12:53:53;;;;;;;2.63;1.07;;;11.10;97.70;;;;;;7735943;28;20452;-76
2020/12/09 12:57:47;;;;;;;1.50;0.90;;;11.10;97.70;;;;;;7736357;28;20131;-77
2020/12/09 13:01:33;;;;;;;3.53;1.27;;;11.00;97.60;;;;;;7728268;28;20059;-76
2020/12/09 13:05:16;;;;;;;3.17;1.30;;;10.90;97.60;;;;;;7734657;28;20056;-76
2020/12/09 13:09:03;;;;;;;3.83;1.73;;;10.70;97.50;;;;;;7736007;28;20052;-74
2020/12/09 13:12:49;;;;;;;5.10;1.33;;;10.60;97.40;;;;;;7736569;28;20060;-77
2020/12/09 13:16:30;;;;;;;1.80;1.00;;;10.50;97.50;;;;;;7735242;28;20064;-76
2020/12/09 13:20:12;;;;;;;3.33;1.13;;;10.40;97.60;;;;;;7735363;28;20102;-75
2020/12/09 13:23:54;;;;;;;1.93;0.90;;;10.30;97.50;;;;;;7735011;28;20063;-76
2020/12/09 13:27:36;;;;;;;2.70;1.03;;;10.30;97.50;;;;;;7735592;28;20071;-76
2020/12/09 13:31:17;;;;;;;2.23;0.90;;;10.20;97.60;;;;;;7736016;28;20130;-76
2020/12/09 13:34:59;;;;;;;2.37;0.80;;;10.20;97.60;;;;;;7734975;28;20087;-77
2020/12/09 13:38:40;;;;;;;1.27;0.70;;;10.10;97.60;;;;;;7734400;28;20157;-76
2020/12/09 13:42:23;;;;;;;2.50;0.90;;;10.10;97.70;;;;;;7734306;28;20091;-76
2020/12/09 13:46:05;;;;;;;0.70;0.60;;;10.10;97.70;;;;;;7727061;28;20072;-76
2020/12/09 13:49:47;;;;;;;1.43;0.60;;;10.10;97.70;;;;;;7734499;28;20060;-76
2020/12/09 13:53:28;;;;;;;1.67;1.00;;;10.10;97.70;;;;;;7735902;28;20314;-76
2020/12/09 13:57:30;;;;;;;1.33;0.90;;;10.10;97.60;;;;;;7733724;28;20102;-76
2020/12/09 14:01:12;;;;;;;1.10;0.70;;;10.00;97.70;;;;;;7733131;28;20052;-74
2020/12/09 14:04:54;;;;;;;1.20;0.70;;;10.10;97.70;;;;;;7733896;28;20060;-75
2020/12/09 14:08:35;;;;;;;2.53;0.67;;;10.10;97.70;;;;;;7733826;28;20344;-76
2020/12/09 14:12:17;;;;;;;0.80;0.60;;;10.10;97.60;;;;;;7733468;28;20056;-76
2020/12/09 14:15:59;;;;;;;0.87;0.70;;;10.20;97.50;;;;;;7734880;28;20099;-75
2020/12/09 14:19:43;;;;;;;1.47;0.70;;;10.10;97.30;;;;;;7728153;28;20056;-76
2020/12/09 14:23:24;;;;;;;4.47;1.30;;;10.20;97.20;;;;;;7733716;28;20109;-75
2020/12/09 14:27:08;;;;;;;2.20;1.27;;;10.10;97.00;;;;;;7733301;28;20142;-76
2020/12/09 14:30:50;;;;;;;1.83;0.70;;;10.10;97.00;;;;;;7733067;28;20095;-75
2020/12/09 14:34:32;;;;;;;1.37;0.90;;;10.10;97.00;;;;;;7732886;28;20064;-76
2020/12/09 14:38:14;;;;;;;1.07;0.60;;;10.00;97.00;;;;;;7732451;28;20091;-76
2020/12/09 14:41:55;;;;;;;0.80;0.70;;;10.00;97.10;;;;;;7734189;28;20096;-76
2020/12/09 14:45:37;;;;;;;0.60;0.60;;;10.00;97.10;;;;;;7729458;28;20336;-76
2020/12/09 14:49:18;;;;;;;0.90;0.70;;;10.00;97.10;;;;;;7710020;28;20068;-77
2020/12/09 14:53:00;;;;;;;0.83;0.60;;;10.00;97.20;;;;;;7718270;28;20135;-77
2020/12/09 14:56:47;;;;;;;0.90;0.70;;;10.00;97.00;;;;;;7717840;28;20105;-77
2020/12/09 15:00:28;;;;;;;0.83;0.60;;;10.00;97.00;;;;;;7717426;28;20433;-76
2020/12/09 15:04:10;;;;;;;3.03;1.20;;;10.00;97.00;;;;;;7740828;28;20458;-77
2020/12/09 15:07:51;;;;;;;1.53;0.80;;;10.10;96.90;;;;;;7730392;28;20115;-76
2020/12/09 15:11:34;;;;;;;1.03;0.80;;;9.90;96.80;;;;;;7728596;28;20052;-78
2020/12/09 15:15:15;;;;;;;1.27;0.60;;;10.00;96.80;;;;;;7696279;28;20171;-77
2020/12/09 15:18:57;;;;;;;1.23;0.70;;;10.00;96.80;;;;;;7723649;28;20083;-77
2020/12/09 15:22:43;;;;;;;2.27;1.00;;;9.90;96.70;;;;;;7730744;28;20289;-75
2020/12/09 15:26:25;;;;;;;;;;;9.90;96.70;;;;;;7732360;28;20063;-81
2020/12/09 15:30:07;;;;;;;4.50;1.70;;;9.80;96.70;;;;;;7729891;28;19971;-77
2020/12/09 15:33:48;;;;;;;3.93;1.70;;;9.80;96.90;;;;;;7728684;28;20151;-75
2020/12/09 15:37:34;;;;;;;3.60;1.60;;;9.80;96.90;;;;;;7731065;28;20381;-76
2020/12/09 15:41:17;;;;;;;1.93;1.10;;;9.80;96.80;;;;;;7730810;28;20444;-75
2020/12/09 15:44:59;;;;;;;5.20;2.90;;;9.80;96.80;;;;;;7730245;28;20139;-77
2020/12/09 15:48:42;;;;;;;8.67;6.03;;;9.70;96.80;;;;;;7717199;28;20060;-77
2020/12/09 15:52:24;;;;;;;11.43;6.23;;;9.70;96.90;;;;;;7730344;28;20105;-77
2020/12/09 15:56:06;;;;;;;25.13;12.90;;;9.70;96.80;;;;;;7729780;28;20088;-76
2020/12/09 15:59:47;;;;;;;20.73;11.30;;;9.60;96.80;;;;;;7724800;28;20447;-78
2020/12/09 16:03:33;;;;;;;15.63;9.47;;;9.60;96.70;;;;;;7727602;28;20063;-77
2020/12/09 16:07:16;;;;;;;8.77;5.33;;;9.60;96.70;;;;;;7724571;28;20052;-75
2020/12/09 16:10:58;;;;;;;6.50;3.00;;;9.60;96.80;;;;;;7728635;28;20067;-76
2020/12/09 16:14:41;;;;;;;3.20;2.03;;;9.50;96.80;;;;;;7729933;28;20056;-75
2020/12/09 16:18:24;;;;;;;2.67;1.53;;;9.50;96.80;;;;;;7729642;28;20110;-76
2020/12/09 16:22:06;;;;;;;3.00;1.60;;;9.50;96.80;;;;;;7729778;28;20052;-75
2020/12/09 16:25:47;;;;;;;3.43;1.40;;;9.50;96.80;;;;;;7725219;28;20084;-76
2020/12/09 16:29:29;;;;;;;1.67;0.97;;;9.40;96.80;;;;;;7727421;28;20117;-76
2020/12/09 16:33:12;;;;;;;2.57;1.60;;;9.40;96.80;;;;;;7726236;28;20060;-76
2020/12/09 16:36:54;;;;;;;6.83;2.53;;;9.40;96.90;;;;;;7724874;28;20084;-76
2020/12/09 16:40:36;;;;;;;8.13;4.33;;;9.40;96.90;;;;;;7730359;28;20091;-76
2020/12/09 16:44:18;;;;;;;8.10;3.87;;;9.30;96.90;;;;;;7729798;28;20467;-78
2020/12/09 16:47:59;;;;;;;9.57;4.60;;;9.30;97.00;;;;;;7716900;28;20098;-77
2020/12/09 16:51:44;;;;;;;7.83;3.97;;;9.30;97.00;;;;;;7729959;28;20409;-76
2020/12/09 16:55:26;;;;;;;5.40;2.60;;;9.30;97.10;;;;;;7725057;28;20064;-75
2020/12/09 16:59:09;;;;;;;6.00;1.90;;;9.30;97.10;;;;;;7718142;28;20143;-78
2020/12/09 17:02:53;;;;;;;3.37;1.63;;;9.30;97.20;;;;;;7728255;28;20056;-82
2020/12/09 17:06:36;;;;;;;2.30;1.30;;;9.40;97.30;;;;;;7732893;28;20088;-78
2020/12/09 17:10:18;;;;;;;1.90;0.90;;;9.30;97.30;;;;;;7734024;28;20063;-82
2020/12/09 17:14:00;;;;;;;2.53;1.20;;;9.40;97.40;;;;;;7734310;28;20095;-81
2020/12/09 17:17:44;;;;;;;3.20;1.30;;;9.40;97.40;;;;;;7734135;28;20059;-80
2020/12/09 17:21:27;;;;;;;3.27;2.03;;;9.40;97.40;;;;;;7731881;28;20052;-80
2020/12/09 17:25:08;;;;;;;3.60;1.50;;;9.40;97.40;;;;;;7734447;28;20574;-81
2020/12/09 17:28:50;;;;;;;4.43;1.70;;;9.40;97.40;;;;;;7734004;28;20084;-82
2020/12/09 17:32:31;;;;;;;3.23;1.60;;;9.50;97.40;;;;;;7734953;28;20098;-80
2020/12/09 17:36:13;;;;;;;3.43;1.77;;;9.50;97.40;;;;;;7734823;28;20094;-79
2020/12/09 17:39:54;;;;;;;3.17;1.73;;;9.60;97.30;;;;;;7719964;28;20053;-78
2020/12/09 17:43:36;;;;;;;4.13;1.70;;;9.60;97.20;;;;;;7703152;28;20131;-78
2020/12/09 17:47:18;;;;;;;2.67;1.40;;;9.60;97.20;;;;;;7719418;28;20060;-82
2020/12/09 17:51:00;;;;;;;3.07;1.30;;;9.60;97.50;;;;;;7730281;28;20051;-76
2020/12/09 17:54:46;;;;;;;2.33;1.00;;;9.60;97.20;;;;;;7730685;28;20068;-75
2020/12/09 17:58:41;;;;;;;3.30;1.20;;;9.70;97.20;;;;;;7727263;28;20460;-75
2020/12/09 18:02:22;;;;;;;3.97;1.40;;;9.70;97.20;;;;;;7733675;28;20104;-78
2020/12/09 18:06:04;;;;;;;2.90;1.37;;;9.80;97.20;;;;;;7733547;28;20087;-76
2020/12/09 18:09:45;;;;;;;3.40;1.40;;;9.80;97.20;;;;;;7733255;28;20453;-84
2020/12/09 18:13:27;;;;;;;3.07;1.40;;;9.90;97.20;;;;;;7718510;28;20134;-77
2020/12/09 18:17:08;;;;;;;3.17;1.23;;;9.90;97.20;;;;;;7729439;28;20048;-80
2020/12/09 18:20:50;;;;;;;2.83;1.50;;;10.00;97.20;;;;;;7733495;28;20064;-76
2020/12/09 18:24:31;;;;;;;3.70;1.30;;;10.00;97.20;;;;;;7732423;28;20475;-74
2020/12/09 18:28:13;;;;;;;2.53;1.37;;;10.00;97.20;;;;;;7730397;28;20084;-75
2020/12/09 18:31:54;;;;;;;2.63;1.23;;;10.10;97.10;;;;;;7729003;28;20051;-81
2020/12/09 18:35:36;;;;;;;2.40;1.20;;;10.10;97.10;;;;;;7733899;28;20056;-79
2020/12/09 18:39:18;;;;;;;2.97;1.30;;;10.00;97.10;;;;;;7730704;28;20143;-78
2020/12/09 18:43:00;;;;;;;6.53;3.60;;;10.00;97.00;;;;;;7722759;28;20399;-79
2020/12/09 18:46:42;;;;;;;12.33;5.17;;;10.00;97.30;;;;;;7723252;28;20064;-80
2020/12/09 18:50:24;;;;;;;7.27;4.17;;;10.00;97.00;;;;;;7718625;28;20080;-83
2020/12/09 18:54:05;;;;;;;9.17;4.13;;;10.00;97.00;;;;;;7730745;28;20087;-77
2020/12/09 18:57:47;;;;;;;5.30;3.00;;;10.00;96.90;;;;;;7738585;28;20095;-80
2020/12/09 19:01:29;;;;;;;4.63;2.57;;;10.00;96.90;;;;;;7737321;28;20108;-82
2020/12/09 19:05:12;;;;;;;4.63;2.50;;;10.00;96.90;;;;;;7732517;28;20406;-80
2020/12/09 19:08:54;;;;;;;4.07;1.83;;;10.00;96.90;;;;;;7732373;28;20067;-91
2020/12/09 19:12:36;;;;;;;4.60;1.80;;;10.00;97.00;;;;;;7734577;28;20052;-84
2020/12/09 19:16:19;;;;;;;3.23;1.80;;;9.90;97.10;;;;;;7759830;28;20051;-81
2020/12/09 19:20:03;;;;;;;4.90;1.93;;;10.00;97.10;;;;;;7740395;28;20059;-82
2020/12/09 19:23:46;;;;;;;3.13;1.53;;;9.90;97.20;;;;;;7753313;28;20063;-90
2020/12/09 19:27:27;;;;;;;2.57;1.40;;;10.00;97.30;;;;;;7765250;28;20112;-89
2020/12/09 19:31:09;;;;;;;2.30;1.10;;;10.00;97.30;;;;;;7764647;28;20060;-85
2020/12/09 19:34:51;;;;;;;2.53;1.30;;;10.00;97.40;;;;;;7757256;28;20502;-84